Time;durP1;ratioP1;P1;durP2;ratioP2;P2;SDS_P1;SDS_P2;PMS_P1;PMS_P2;Temp;Humidity;BMP_temperature;BMP_pressure;BME280_temperature;BME280_humidity;BME280_pressure;Samples;Min_cycle;Max_cycle;Signal;HPM_P1;HPM_P2
2023/06/14 04:16:54;;;;;;;17.33;10.20;;;;;;;11.64;100.00;100099.34;5556590;32;264364;-87
2023/06/14 04:19:59;;;;;;;18.55;9.40;;;;;;;11.65;100.00;100110.78;5552993;32;33702;-88
2023/06/14 04:23:17;;;;;;;14.70;9.88;;;;;;;11.73;100.00;100117.38;5548797;32;33791;-88
2023/06/14 04:26:23;;;;;;;15.38;9.02;;;;;;;11.92;100.00;100107.47;5544635;32;33692;-88
2023/06/14 04:29:29;;;;;;;14.48;9.05;;;;;;;12.13;100.00;100119.50;5543669;32;33435;-88
2023/06/14 04:32:34;;;;;;;12.23;9.25;;;;;;;12.44;100.00;100121.22;5542518;32;33731;-88
2023/06/14 04:35:38;;;;;;;13.82;9.13;;;;;;;12.77;100.00;100125.41;5547963;32;34175;-88
2023/06/14 04:38:42;;;;;;;15.40;8.68;;;;;;;13.14;100.00;100116.88;5555869;32;33572;-88
2023/06/14 04:41:46;;;;;;;15.05;10.40;;;;;;;13.30;100.00;100120.25;5550692;32;34179;-89
2023/06/14 04:44:55;;;;;;;14.48;9.65;;;;;;;13.35;100.00;100119.94;5552137;32;33804;-88
2023/06/14 04:47:59;;;;;;;12.82;9.18;;;;;;;13.55;100.00;100121.34;5553839;32;33879;-91
2023/06/14 04:51:03;;;;;;;13.18;8.90;;;;;;;13.75;100.00;100121.81;5552341;32;34805;-91
2023/06/14 04:54:09;;;;;;;15.07;9.23;;;;;;;13.89;100.00;100123.53;5547929;32;33916;-89
2023/06/14 04:57:17;;;;;;;14.38;9.02;;;;;;;13.98;100.00;100125.56;5545143;32;34139;-88
2023/06/14 05:00:21;;;;;;;15.88;9.02;;;;;;;14.17;100.00;100126.97;5545458;32;34001;-89
2023/06/14 05:03:23;;;;;;;16.30;9.05;;;;;;;14.46;100.00;100124.09;5545150;32;33903;-89
2023/06/14 05:06:27;;;;;;;11.85;8.70;;;;;;;14.74;100.00;100131.97;5544944;32;34368;-89
2023/06/14 05:09:30;;;;;;;12.40;8.93;;;;;;;15.17;100.00;100128.91;5552803;32;33983;-89
2023/06/14 05:12:34;;;;;;;16.33;9.52;;;;;;;15.19;100.00;100137.66;5546304;32;33904;-88
2023/06/14 05:15:38;;;;;;;17.48;8.93;;;;;;;15.49;100.00;100124.81;5547076;32;34410;-88
2023/06/14 05:18:41;;;;;;;13.98;8.32;;;;;;;15.94;100.00;100129.50;5547150;32;34434;-89
2023/06/14 05:21:44;;;;;;;11.98;8.20;;;;;;;18.14;100.00;100130.75;5544793;32;33404;-88
2023/06/14 05:24:48;;;;;;;10.77;8.05;;;;;;;21.29;81.35;100135.31;5543947;32;34707;-89
2023/06/14 05:27:51;;;;;;;10.38;7.50;;;;;;;23.03;68.67;100127.59;5532595;32;33687;-88
2023/06/14 05:30:53;;;;;;;8.98;6.95;;;;;;;25.59;60.20;100140.06;5536056;32;34182;-89
2023/06/14 05:33:56;;;;;;;11.98;7.28;;;;;;;25.52;52.11;100142.63;5538885;32;34667;-89
2023/06/14 05:37:00;;;;;;;10.00;7.85;;;;;;;23.64;54.95;100131.97;5533096;32;34351;-89
2023/06/14 05:40:05;;;;;;;11.68;8.00;;;;;;;21.95;62.97;100135.09;5533263;32;34508;-89
2023/06/14 05:43:08;;;;;;;10.70;7.75;;;;;;;20.94;65.25;100134.25;5533406;32;34617;-89
2023/06/14 05:46:11;;;;;;;9.93;7.78;;;;;;;20.70;67.51;100136.47;5533590;32;33813;-89
2023/06/14 05:49:13;;;;;;;11.90;8.50;;;;;;;20.90;67.11;100133.69;5523018;32;33907;-89
2023/06/14 05:52:16;;;;;;;14.93;8.23;;;;;;;21.59;63.65;100140.50;5524024;32;34060;-89
2023/06/14 05:55:19;;;;;;;11.05;7.75;;;;;;;22.06;60.12;100132.16;5525585;32;34148;-89
2023/06/14 05:58:22;;;;;;;13.02;8.43;;;;;;;23.20;57.78;100136.63;5520563;32;33631;-88
2023/06/14 06:01:25;;;;;;;9.65;7.35;;;;;;;23.03;55.95;100141.09;5523579;32;33331;-89
2023/06/14 06:04:28;;;;;;;10.40;7.82;;;;;;;24.65;53.01;100136.25;5534854;32;33822;-86
2023/06/14 06:07:30;;;;;;;8.60;7.03;;;;;;;25.93;47.56;100141.47;5523197;32;34031;-85
2023/06/14 06:10:33;;;;;;;12.05;7.12;;;;;;;26.80;45.54;100141.94;5529246;32;33662;-88
2023/06/14 06:13:36;;;;;;;9.55;7.30;;;;;;;27.04;45.21;100137.25;5531171;32;33687;-88
2023/06/14 06:16:40;;;;;;;8.57;7.43;;;;;;;28.06;42.44;100133.66;5523150;32;33414;-88
2023/06/14 06:19:42;;;;;;;11.00;7.35;;;;;;;26.13;45.33;100135.53;5528675;32;34585;-88
2023/06/14 06:22:45;;;;;;;9.93;7.55;;;;;;;25.38;47.04;100136.94;5528891;32;35356;-88
2023/06/14 06:25:48;;;;;;;9.15;6.57;;;;;;;26.33;44.77;100139.44;5527512;32;34428;-90
2023/06/14 06:28:51;;;;;;;8.30;6.18;;;;;;;25.38;47.39;100139.66;5529564;32;33748;-88
2023/06/14 06:31:56;;;;;;;7.85;6.45;;;;;;;25.92;46.27;100142.50;5526762;32;34049;-88
2023/06/14 06:35:00;;;;;;;7.03;6.32;;;;;;;25.78;47.37;100142.28;5523641;32;33576;-88
2023/06/14 06:38:02;;;;;;;10.00;6.60;;;;;;;25.19;47.69;100145.56;5529451;32;34495;-90
2023/06/14 06:41:05;;;;;;;8.73;6.60;;;;;;;24.27;50.62;100145.84;5527068;32;33632;-89
2023/06/14 06:44:10;;;;;;;8.32;6.80;;;;;;;24.03;51.10;100149.41;5527951;32;33508;-89
2023/06/14 06:47:13;;;;;;;8.13;6.82;;;;;;;22.31;56.93;100140.41;5531043;32;34746;-89
2023/06/14 06:50:18;;;;;;;10.82;7.32;;;;;;;21.70;60.63;100139.44;5526740;32;34553;-88
2023/06/14 06:53:21;;;;;;;10.05;7.22;;;;;;;21.21;60.58;100137.91;5529670;32;33800;-88
2023/06/14 06:56:41;;;;;;;10.30;7.18;;;;;;;21.18;61.10;100136.41;5529308;32;33754;-87
2023/06/14 06:59:44;;;;;;;9.57;6.82;;;;;;;21.30;61.89;100138.84;5529312;32;33700;-88
2023/06/14 07:02:47;;;;;;;9.20;6.82;;;;;;;21.17;63.03;100131.13;5529049;32;35102;-88
2023/06/14 07:05:50;;;;;;;9.50;6.95;;;;;;;21.62;62.19;100132.09;5529862;32;34282;-87
2023/06/14 07:08:53;;;;;;;13.18;7.12;;;;;;;22.09;60.34;100133.69;5530242;32;34091;-88
2023/06/14 07:11:56;;;;;;;9.85;7.45;;;;;;;21.96;60.10;100138.66;5530433;32;34004;-88
2023/06/14 07:14:59;;;;;;;10.50;7.43;;;;;;;21.51;61.03;100139.41;5524737;32;34612;-89
2023/06/14 07:18:04;;;;;;;14.60;7.32;;;;;;;22.07;60.65;100136.53;5529114;32;34516;-89
2023/06/14 07:21:07;;;;;;;9.77;6.87;;;;;;;22.58;58.06;100148.53;5541344;32;34309;-89
2023/06/14 07:24:10;;;;;;;11.27;7.05;;;;;;;21.91;59.65;100147.19;5531857;32;33927;-88
2023/06/14 07:27:13;;;;;;;10.80;6.60;;;;;;;22.21;58.81;100139.66;5533545;32;34447;-91
2023/06/14 07:30:17;;;;;;;10.73;6.72;;;;;;;22.18;58.64;100140.00;5540578;32;33612;-90
2023/06/14 07:33:20;;;;;;;9.80;6.78;;;;;;;21.67;60.31;100132.47;5581227;26;34010;-89
2023/06/14 07:36:23;;;;;;;9.63;5.95;;;;;;;21.64;60.79;100138.19;5577844;26;34074;-91
2023/06/14 07:43:11;;;;;;;9.88;6.47;;;;;;;22.67;57.01;100142.16;5622174;26;20083;-90
2023/06/14 07:46:15;;;;;;;13.45;6.18;;;;;;;23.46;54.21;100148.34;5557357;32;33772;-88
2023/06/14 07:49:17;;;;;;;10.15;6.03;;;;;;;23.68;53.27;100147.72;5558615;32;35214;-88
2023/06/14 07:52:20;;;;;;;14.73;6.82;;;;;;;23.64;54.04;100159.06;5553071;32;34714;-88
2023/06/14 07:55:25;;;;;;;10.68;6.00;;;;;;;23.83;52.44;100156.00;5549952;32;33463;-88
2023/06/14 07:58:28;;;;;;;10.70;6.00;;;;;;;23.49;53.49;100145.31;5550607;32;34133;-89
2023/06/14 08:01:33;;;;;;;11.00;6.28;;;;;;;22.54;55.15;100155.28;5552733;32;33951;-88
2023/06/14 08:04:36;;;;;;;12.32;5.68;;;;;;;22.45;54.60;100155.19;5559166;32;34604;-88
2023/06/14 08:07:39;;;;;;;8.15;5.95;;;;;;;23.30;55.21;100150.00;5556504;32;33723;-89
2023/06/14 08:10:42;;;;;;;9.50;5.00;;;;;;;23.77;50.74;100150.41;5555948;32;34095;-89
2023/06/14 08:13:45;;;;;;;9.50;5.55;;;;;;;24.16;49.49;100157.03;5554015;32;33987;-91
2023/06/14 08:16:49;;;;;;;11.30;6.28;;;;;;;23.67;49.30;100154.16;5574727;26;35046;-91
2023/06/14 08:19:57;;;;;;;11.38;6.32;;;;;;;23.53;50.34;100160.22;5615840;26;34373;-90
2023/06/14 08:23:00;;;;;;;8.82;5.65;;;;;;;24.02;49.91;100153.97;5550305;32;33921;-90
2023/06/14 08:26:04;;;;;;;13.23;6.50;;;;;;;24.50;49.05;100154.09;5598944;26;33613;-89
2023/06/14 08:29:08;;;;;;;15.65;6.05;;;;;;;25.33;47.16;100155.63;5550296;32;33691;-90
2023/06/14 08:32:11;;;;;;;10.45;6.37;;;;;;;25.52;46.59;100156.19;5584022;26;33191;-93
2023/06/14 08:35:15;;;;;;;11.18;6.25;;;;;;;26.22;42.74;100157.06;5570265;32;34195;-93
2023/06/14 08:38:20;;;;;;;10.70;5.95;;;;;;;26.66;43.10;100156.41;5567997;31;33339;-90
2023/06/14 08:41:24;;;;;;;7.30;5.85;;;;;;;26.57;43.81;100161.09;5563709;32;33005;-89
2023/06/14 08:48:07;;;;;;;9.02;5.87;;;;;;;25.19;45.11;100173.50;5552632;32;20089;-90
2023/06/14 08:51:13;;;;;;;11.18;6.00;;;;;;;24.39;47.49;100172.59;5576330;26;33629;-90
2023/06/14 08:54:16;;;;;;;9.60;5.65;;;;;;;24.06;48.72;100187.00;5603292;26;33794;-90
2023/06/14 08:57:20;;;;;;;14.65;6.37;;;;;;;23.09;50.47;100181.03;5568872;32;33664;-90
2023/06/14 09:00:24;;;;;;;9.70;5.85;;;;;;;22.70;52.89;100179.69;5568753;32;34412;-90
2023/06/14 09:03:30;;;;;;;13.75;5.97;;;;;;;22.94;52.01;100190.78;5584570;26;34863;-90
2023/06/14 09:06:33;;;;;;;11.02;5.18;;;;;;;23.02;52.31;100185.41;5546782;32;33655;-90
2023/06/14 09:09:41;;;;;;;9.65;5.62;;;;;;;23.11;51.22;100191.69;5551684;32;34576;-90
2023/06/14 09:13:04;;;;;;;9.15;5.12;;;;;;;23.12;52.32;100188.84;5545695;32;33603;-90
2023/06/14 09:16:08;;;;;;;12.75;5.45;;;;;;;22.83;52.32;100189.22;5548746;32;33856;-87
2023/06/14 09:19:22;;;;;;;8.23;5.18;;;;;;;23.30;50.32;100190.59;5549542;32;34050;-87
2023/06/14 09:22:25;;;;;;;8.65;5.35;;;;;;;23.14;50.32;100194.91;5547930;32;33227;-87
2023/06/14 09:25:27;;;;;;;12.05;5.40;;;;;;;23.18;50.44;100200.84;5546715;32;34176;-86
2023/06/14 09:28:50;;;;;;;11.27;5.40;;;;;;;23.14;52.01;100194.91;5531827;32;34809;-87
2023/06/14 09:31:53;;;;;;;10.02;5.50;;;;;;;23.26;50.23;100195.47;5550476;32;34037;-89
2023/06/14 09:34:56;;;;;;;9.95;5.00;;;;;;;23.16;51.01;100192.06;5559102;32;34456;-88
2023/06/14 09:37:59;;;;;;;9.85;5.45;;;;;;;23.31;51.85;100186.03;5556080;32;33674;-88
2023/06/14 09:41:03;;;;;;;8.88;5.18;;;;;;;23.27;50.91;100186.34;5550343;32;33847;-88
2023/06/14 09:44:11;;;;;;;16.25;5.65;;;;;;;23.27;51.96;100175.53;5540272;32;34546;-88
2023/06/14 09:47:23;;;;;;;10.25;4.78;;;;;;;23.19;51.73;100180.06;5542872;32;33830;-88
2023/06/14 09:50:29;;;;;;;10.45;5.07;;;;;;;25.27;44.53;100181.62;5545248;32;33834;-88
2023/06/14 09:53:36;;;;;;;8.13;4.47;;;;;;;25.80;42.54;100180.13;5549389;32;34535;-88
2023/06/14 09:56:44;;;;;;;8.10;5.00;;;;;;;26.42;41.28;100170.09;5539772;32;34779;-87
2023/06/14 09:59:48;;;;;;;8.25;4.78;;;;;;;26.35;41.27;100166.44;5548118;32;32958;-88
2023/06/14 10:03:00;;;;;;;4.45;3.90;;;;;;;27.07;40.06;100165.97;5549731;32;33763;-88
2023/06/14 10:06:08;;;;;;;5.07;4.20;;;;;;;27.64;37.04;100158.87;5551244;32;33862;-87
2023/06/14 10:09:10;;;;;;;6.00;3.97;;;;;;;28.04;35.74;100163.00;5556136;32;33993;-88
2023/06/14 10:12:18;;;;;;;4.60;3.67;;;;;;;28.23;34.64;100166.94;5543942;32;33693;-88
2023/06/14 10:15:38;;;;;;;6.03;3.78;;;;;;;28.00;34.93;100156.25;5545645;32;33650;-88
2023/06/14 10:19:03;;;;;;;5.05;3.55;;;;;;;28.67;32.58;100161.34;5549965;32;33599;-88
2023/06/14 10:22:22;;;;;;;4.35;3.72;;;;;;;29.07;32.24;100158.84;5550087;32;33731;-90
2023/06/14 10:25:26;;;;;;;;;;;;;;;30.27;29.85;100159.28;5540243;32;33846;-87
2023/06/14 10:28:30;;;;;;;4.85;3.80;;;;;;;32.07;28.52;100154.22;5550864;32;34379;-87
2023/06/14 10:32:00;;;;;;;5.57;3.67;;;;;;;32.32;26.16;100156.09;5560922;32;33871;-87
2023/06/14 10:35:06;;;;;;;4.57;3.73;;;;;;;29.67;30.71;100154.63;5550415;32;33843;-88
2023/06/14 10:38:12;;;;;;;7.47;4.03;;;;;;;29.93;31.26;100151.06;5550365;32;33654;-88
2023/06/14 10:41:17;;;;;;;4.45;3.92;;;;;;;29.63;31.12;100148.72;5548037;32;33977;-87
2023/06/14 10:44:19;;;;;;;6.03;4.20;;;;;;;28.94;32.91;100148.72;5545990;32;33608;-88
2023/06/14 10:47:28;;;;;;;4.62;4.18;;;;;;;28.11;34.61;100148.38;5535075;32;34645;-87
2023/06/14 10:50:33;;;;;;;4.62;3.70;;;;;;;26.67;34.94;100144.50;5540970;32;33826;-87
2023/06/14 10:53:42;;;;;;;7.68;4.90;;;;;;;25.58;40.03;100144.63;5540754;32;33711;-87
2023/06/14 10:56:50;;;;;;;6.82;4.55;;;;;;;25.15;41.06;100143.19;5545002;32;34789;-88
2023/06/14 10:59:54;;;;;;;6.62;4.93;;;;;;;24.50;44.29;100139.72;5538088;32;34499;-87
2023/06/14 11:03:53;;;;;;;6.18;4.70;;;;;;;24.99;43.50;100143.28;5546853;32;34508;-88
2023/06/14 11:07:25;;;;;;;5.07;4.40;;;;;;;24.75;42.13;100140.44;5515677;32;33790;-87
2023/06/14 11:10:39;;;;;;;5.57;3.47;;;;;;;25.54;40.68;100143.34;5554218;32;35202;-88
2023/06/14 11:13:45;;;;;;;5.35;3.75;;;;;;;25.92;39.71;100134.34;5553706;32;34170;-92
2023/06/14 11:16:49;;;;;;;6.65;3.97;;;;;;;26.22;37.77;100134.41;5544546;32;33039;-88
2023/06/14 11:20:10;;;;;;;5.47;3.75;;;;;;;26.71;36.17;100135.78;5546854;32;33653;-89
2023/06/14 11:23:14;;;;;;;7.62;3.92;;;;;;;26.27;39.38;100125.72;5544343;32;34057;-88
2023/06/14 11:26:26;;;;;;;6.18;3.78;;;;;;;25.44;39.66;100129.94;5545738;32;33756;-88
2023/06/14 11:29:30;;;;;;;4.97;3.78;;;;;;;25.78;37.86;100133.28;5557775;32;34206;-88
2023/06/14 11:32:37;;;;;;;6.07;3.50;;;;;;;26.07;36.63;100129.81;5555783;32;34977;-89
2023/06/14 11:35:41;;;;;;;8.00;3.65;;;;;;;26.33;37.98;100125.84;5554247;32;33987;-89
2023/06/14 11:38:44;;;;;;;5.35;4.05;;;;;;;26.58;38.19;100120.12;5547713;32;33285;-87
2023/06/14 11:41:47;;;;;;;5.07;3.70;;;;;;;25.89;40.23;100132.03;5530689;32;34963;-87
2023/06/14 11:44:50;;;;;;;4.80;3.97;;;;;;;26.69;37.97;100131.56;5531516;32;33797;-88
2023/06/14 11:47:56;;;;;;;5.03;3.87;;;;;;;26.03;40.17;100130.34;5538714;32;34731;-88
2023/06/14 11:50:59;;;;;;;12.18;3.90;;;;;;;25.52;41.67;100127.19;5542821;32;34790;-87
2023/06/14 11:54:03;;;;;;;8.52;4.18;;;;;;;26.48;40.99;100125.00;5542055;32;34486;-88
2023/06/14 11:57:10;;;;;;;5.87;3.78;;;;;;;27.30;38.26;100122.28;5539795;32;34251;-87
2023/06/14 12:00:15;;;;;;;7.32;4.07;;;;;;;27.40;39.19;100125.50;5548912;32;33977;-88
2023/06/14 12:03:23;;;;;;;5.43;4.12;;;;;;;27.75;37.93;100124.81;5559117;26;34287;-87
2023/06/14 12:06:28;;;;;;;6.50;4.35;;;;;;;28.18;37.58;100132.09;5539013;32;33789;-87
2023/06/14 12:09:32;;;;;;;7.20;3.90;;;;;;;25.92;40.48;100134.34;5547476;32;34506;-88
2023/06/14 12:12:40;;;;;;;4.37;3.90;;;;;;;25.51;40.61;100135.50;5533840;32;33980;-88
2023/06/14 12:15:42;;;;;;;6.20;4.30;;;;;;;25.46;41.18;100133.34;5541341;32;33764;-88
2023/06/14 12:18:47;;;;;;;6.95;4.05;;;;;;;25.58;40.21;100138.38;5559956;32;33763;-88
2023/06/14 12:21:50;;;;;;;5.60;3.92;;;;;;;24.72;42.22;100137.25;5542555;32;33546;-88
2023/06/14 12:24:54;;;;;;;5.78;4.30;;;;;;;23.77;44.50;100120.62;5536070;32;33794;-88
2023/06/14 12:27:57;;;;;;;6.35;4.00;;;;;;;23.98;45.40;100130.94;5548102;32;35490;-89
2023/06/14 12:31:00;;;;;;;4.18;3.78;;;;;;;23.41;44.70;100124.50;5548757;32;33653;-87
2023/06/14 12:34:03;;;;;;;6.32;3.83;;;;;;;24.40;44.33;100125.50;5549950;32;34356;-88
2023/06/14 12:37:06;;;;;;;3.87;3.53;;;;;;;24.74;43.64;100129.81;5552560;32;33618;-88
2023/06/14 12:40:11;;;;;;;4.30;3.90;;;;;;;24.66;42.49;100137.94;5552270;32;33901;-88
2023/06/14 12:43:15;;;;;;;5.87;3.83;;;;;;;24.07;42.31;100138.09;5551487;32;35258;-92
2023/06/14 12:46:21;;;;;;;5.75;3.80;;;;;;;23.93;42.16;100136.88;5552749;32;34126;-90
2023/06/14 12:49:25;;;;;;;6.10;3.72;;;;;;;24.33;41.81;100130.75;5564809;32;34171;-88
2023/06/14 12:52:27;;;;;;;6.57;3.65;;;;;;;24.81;41.36;100133.53;5560363;32;33859;-89
2023/06/14 12:55:30;;;;;;;6.45;4.30;;;;;;;25.08;39.16;100131.34;5559398;32;35161;-88
2023/06/14 12:58:33;;;;;;;4.10;3.47;;;;;;;25.09;39.36;100134.91;5552328;32;34093;-87
2023/06/14 13:01:39;;;;;;;5.25;3.60;;;;;;;24.99;38.12;100133.25;5547863;32;33636;-88
2023/06/14 13:04:42;;;;;;;6.10;3.75;;;;;;;24.84;38.54;100133.16;5524505;32;33765;-88
2023/06/14 13:07:45;;;;;;;6.95;3.80;;;;;;;24.01;39.14;100118.91;5523798;32;35272;-88
2023/06/14 13:10:47;;;;;;;7.18;3.65;;;;;;;24.40;40.75;100117.38;5521585;32;33944;-88
2023/06/14 13:13:50;;;;;;;4.90;3.80;;;;;;;24.68;39.56;100120.47;5602763;26;34106;-91
2023/06/14 13:16:53;;;;;;;5.20;3.70;;;;;;;24.12;39.29;100118.59;5513966;32;33975;-89
2023/06/14 13:38:30;;;;;;;4.85;3.53;;;;;;;23.20;41.59;100108.69;5563773;26;20104;-90
2023/06/14 13:45:11;;;;;;;4.30;3.00;;;;;;;23.10;40.36;100106.16;843031;30;20365;-88
2023/06/14 13:48:14;;;;;;;4.00;3.30;;;;;;;23.18;38.64;100105.31;5530853;32;32620;-88
2023/06/14 13:51:18;;;;;;;4.53;3.40;;;;;;;23.39;39.80;100100.31;5532370;32;34219;-90
2023/06/14 13:54:22;;;;;;;8.02;3.60;;;;;;;23.66;37.41;100098.31;5582825;26;33839;-90
2023/06/14 13:57:25;;;;;;;5.75;3.10;;;;;;;23.75;37.63;100101.00;5590928;26;34230;-90
2023/06/14 14:00:29;;;;;;;10.73;3.83;;;;;;;24.06;39.47;100103.00;5601973;26;33702;-90
2023/06/14 14:03:32;;;;;;;7.68;3.53;;;;;;;24.47;39.12;100104.81;5552075;31;34495;-90
2023/06/14 14:06:35;;;;;;;7.72;3.70;;;;;;;24.42;38.84;100105.31;5550033;32;33668;-90
2023/06/14 14:09:39;;;;;;;4.85;3.42;;;;;;;24.67;38.75;100101.66;5549884;32;34529;-90
2023/06/14 14:12:41;;;;;;;5.72;3.30;;;;;;;24.29;39.51;100100.44;5551700;32;34237;-90
2023/06/14 14:15:44;;;;;;;6.72;3.45;;;;;;;24.12;38.45;100096.09;5559417;32;34011;-90
2023/06/14 14:18:47;;;;;;;5.00;3.45;;;;;;;24.53;38.30;100105.97;5558998;32;33875;-91
2023/06/14 14:21:50;;;;;;;5.10;3.05;;;;;;;24.49;37.43;100103.59;5550395;32;35269;-89
2023/06/14 14:24:53;;;;;;;4.03;3.10;;;;;;;24.62;36.70;100111.19;5550230;32;33835;-91
2023/06/14 14:27:56;;;;;;;4.72;3.70;;;;;;;24.52;35.90;100109.69;5554780;32;33824;-92
2023/06/14 14:30:59;;;;;;;6.20;3.45;;;;;;;23.89;38.18;100105.72;5557358;32;33631;-92
2023/06/14 14:34:02;;;;;;;4.60;3.60;;;;;;;24.11;37.32;100091.69;5550679;32;34318;-91
2023/06/14 14:37:05;;;;;;;3.70;3.17;;;;;;;23.53;39.14;100100.69;5550240;32;33759;-91
2023/06/14 14:40:09;;;;;;;4.50;3.60;;;;;;;23.81;35.25;100108.44;5550685;32;33450;-91
2023/06/14 14:43:12;;;;;;;3.80;3.42;;;;;;;23.62;34.77;100096.94;5550626;32;33846;-91
2023/06/14 14:46:16;;;;;;;3.83;3.15;;;;;;;23.79;36.45;100095.06;5550625;32;34543;-90
2023/06/14 14:49:20;;;;;;;9.05;3.70;;;;;;;24.10;34.26;100093.56;5550441;32;33865;-91
2023/06/14 14:52:24;;;;;;;4.80;3.12;;;;;;;24.12;34.46;100099.62;5550465;32;33767;-90
2023/06/14 14:55:27;;;;;;;4.10;3.37;;;;;;;23.99;35.28;100105.56;5551293;32;33474;-91
2023/06/14 14:58:30;;;;;;;5.18;3.67;;;;;;;24.26;35.00;100098.09;5549149;32;33628;-90
2023/06/14 15:01:32;;;;;;;5.28;3.50;;;;;;;24.10;34.51;100101.69;5534311;32;34323;-90
2023/06/14 15:04:36;;;;;;;3.35;3.05;;;;;;;23.57;37.22;100102.00;5544780;32;33989;-90
2023/06/14 15:07:39;;;;;;;6.43;3.60;;;;;;;23.69;38.23;100094.41;5550689;32;35295;-90
2023/06/14 15:10:57;;;;;;;4.55;3.37;;;;;;;23.54;37.50;100091.53;5601602;26;34246;-90
2023/06/14 15:14:00;;;;;;;5.50;3.40;;;;;;;23.22;39.04;100094.00;5549425;32;33797;-91
2023/06/14 15:17:03;;;;;;;4.60;3.33;;;;;;;22.98;37.19;100084.81;5550740;32;34196;-90
2023/06/14 15:20:12;;;;;;;4.30;3.30;;;;;;;23.21;37.95;100092.31;5550338;31;33984;-90
2023/06/14 15:23:19;;;;;;;3.78;3.42;;;;;;;22.89;39.48;100093.94;5550926;32;33769;-90
2023/06/14 15:26:24;;;;;;;6.05;3.67;;;;;;;22.92;40.91;100093.59;5550642;32;34584;-90
2023/06/14 15:29:28;;;;;;;5.28;3.55;;;;;;;23.01;40.85;100081.78;5565041;26;34625;-90
2023/06/14 15:32:30;;;;;;;4.80;3.47;;;;;;;22.80;42.96;100082.25;5558300;32;33493;-90
2023/06/14 15:35:34;;;;;;;5.75;3.78;;;;;;;22.69;42.71;100079.81;5565628;26;34831;-89
2023/06/14 15:38:36;;;;;;;6.37;3.70;;;;;;;22.70;42.98;100076.09;5552126;31;34139;-90
2023/06/14 15:41:39;;;;;;;6.32;3.95;;;;;;;22.65;44.21;100078.44;5554902;32;33914;-90
2023/06/14 15:44:42;;;;;;;7.70;3.53;;;;;;;22.94;43.10;100075.34;5550836;32;33965;-90
2023/06/14 15:47:45;;;;;;;5.70;3.30;;;;;;;23.11;43.02;100072.66;5550573;32;34424;-90
2023/06/14 15:50:48;;;;;;;4.95;3.60;;;;;;;22.54;44.60;100083.16;5555317;32;33971;-90
2023/06/14 15:53:52;;;;;;;5.68;3.37;;;;;;;22.45;45.52;100079.53;5553134;32;34032;-90
2023/06/14 15:56:54;;;;;;;6.93;3.55;;;;;;;22.41;45.54;100080.84;5550029;32;33582;-89
2023/06/14 15:59:57;;;;;;;6.45;3.47;;;;;;;22.39;45.91;100085.59;5549684;31;33976;-89
2023/06/14 16:03:00;;;;;;;5.50;3.30;;;;;;;22.31;46.71;100083.69;5550020;32;34064;-89
2023/06/14 16:06:03;;;;;;;4.15;3.00;;;;;;;22.55;46.03;100086.69;5549766;32;34625;-90
2023/06/14 16:09:05;;;;;;;3.60;3.30;;;;;;;22.53;46.04;100086.84;5548887;32;33870;-90
2023/06/14 16:12:08;;;;;;;3.75;3.37;;;;;;;22.45;47.08;100086.78;5549801;32;33373;-89
2023/06/14 16:15:11;;;;;;;4.80;3.47;;;;;;;22.42;45.62;100089.81;5549344;32;34085;-90
2023/06/14 16:18:14;;;;;;;5.65;3.40;;;;;;;22.41;45.20;100088.97;5620786;26;33555;-89
2023/06/14 16:21:16;;;;;;;4.20;3.60;;;;;;;22.29;46.20;100093.81;5549587;32;34047;-89
2023/06/14 16:24:19;;;;;;;4.28;3.28;;;;;;;22.23;45.70;100097.16;5548817;32;33917;-89
2023/06/14 16:27:23;;;;;;;5.05;3.40;;;;;;;22.15;45.99;100103.34;5549412;32;34320;-92
2023/06/14 16:30:26;;;;;;;5.50;3.58;;;;;;;22.18;47.00;100102.19;5549877;32;34103;-90
2023/06/14 16:33:29;;;;;;;4.22;3.40;;;;;;;22.01;46.64;100102.06;5581066;26;35511;-92
2023/06/14 16:36:40;;;;;;;4.95;3.35;;;;;;;22.13;46.50;100108.03;5555968;26;35100;31
2023/06/14 16:39:42;;;;;;;;;;;;;;;21.57;46.46;100112.81;5548310;32;34739;-91
2023/06/14 16:42:45;;;;;;;4.47;3.72;;;;;;;21.54;47.45;100111.28;5549360;32;34814;-91
2023/06/14 16:45:47;;;;;;;4.40;4.00;;;;;;;21.28;47.29;100112.03;5549843;32;33931;-91
2023/06/14 16:48:50;;;;;;;6.05;3.40;;;;;;;21.07;47.57;100117.72;5554370;32;33675;-91
2023/06/14 16:51:54;;;;;;;4.28;3.37;;;;;;;20.92;48.48;100125.47;5559383;32;33676;-91
2023/06/14 16:54:57;;;;;;;4.65;3.50;;;;;;;20.89;48.84;100118.53;5550647;32;35320;-90
2023/06/14 16:58:00;;;;;;;3.80;3.50;;;;;;;20.90;50.21;100125.63;5549951;32;33756;-90
2023/06/14 17:01:03;;;;;;;5.85;3.47;;;;;;;20.88;50.74;100119.53;5554117;31;34544;-91
2023/06/14 17:04:05;;;;;;;4.82;3.60;;;;;;;20.94;48.34;100124.31;5552042;32;33970;-90
2023/06/14 17:07:08;;;;;;;6.70;4.00;;;;;;;21.04;49.67;100132.34;5550744;32;34648;-90
2023/06/14 17:10:13;;;;;;;10.57;3.70;;;;;;;20.97;48.68;100131.25;5584276;26;33948;-91
2023/06/14 17:13:16;;;;;;;5.10;3.60;;;;;;;20.74;49.75;100137.00;5598922;26;33560;-91
2023/06/14 17:16:19;;;;;;;5.10;3.70;;;;;;;20.67;49.65;100130.53;5549201;32;33962;-90
2023/06/14 17:19:23;;;;;;;7.87;3.58;;;;;;;20.54;51.74;100138.94;5549594;32;33709;-90
2023/06/14 17:22:25;;;;;;;4.25;3.50;;;;;;;20.46;52.95;100135.13;5556865;32;33810;-90
2023/06/14 17:25:31;;;;;;;7.70;4.55;;;;;;;20.25;53.91;100131.78;5552603;32;34246;-90
2023/06/14 17:28:35;;;;;;;12.07;4.37;;;;;;;20.17;54.60;100137.91;5555259;32;33508;-90
2023/06/14 17:31:38;;;;;;;6.68;4.22;;;;;;;20.06;55.78;100136.22;5551163;32;33583;-90
2023/06/14 17:34:41;;;;;;;8.07;4.45;;;;;;;19.93;56.18;100137.34;5552137;31;34171;-90
2023/06/14 17:37:44;;;;;;;8.05;5.32;;;;;;;19.91;56.74;100139.31;5551373;32;34175;-90
2023/06/14 17:40:46;;;;;;;6.87;4.90;;;;;;;19.77;57.02;100148.69;5552141;32;34077;-90
2023/06/14 17:43:53;;;;;;;10.20;4.35;;;;;;;19.77;56.71;100145.97;5551630;32;33688;-90
2023/06/14 17:46:55;;;;;;;7.68;4.62;;;;;;;19.79;56.71;100149.41;5551860;32;33577;-90
2023/06/14 17:50:00;;;;;;;5.65;4.10;;;;;;;19.77;58.59;100150.53;5552215;32;33803;-90
2023/06/14 17:53:05;;;;;;;6.68;4.10;;;;;;;19.82;57.41;100152.78;5573642;26;34485;-90
2023/06/14 17:56:09;;;;;;;4.28;3.87;;;;;;;19.77;57.89;100154.06;5551644;32;33756;-90
2023/06/14 17:59:12;;;;;;;7.00;4.07;;;;;;;19.82;57.71;100150.97;5551406;32;34055;-91
2023/06/14 18:02:15;;;;;;;8.85;3.78;;;;;;;19.87;57.83;100147.84;5600993;26;33560;-90
2023/06/14 18:05:18;;;;;;;5.40;4.20;;;;;;;19.84;57.58;100158.87;5551318;32;33522;-90
2023/06/14 18:08:21;;;;;;;6.00;4.05;;;;;;;19.84;58.46;100151.66;5556391;32;33686;-90
2023/06/14 18:11:25;;;;;;;6.55;3.67;;;;;;;19.84;59.06;100162.44;5555556;32;34165;-90
2023/06/14 18:14:27;;;;;;;5.12;3.80;;;;;;;19.84;58.11;100164.25;5550785;32;33901;-90
2023/06/14 18:17:31;;;;;;;4.20;3.80;;;;;;;19.82;59.13;100158.19;5551141;32;33906;-90
2023/06/14 18:20:34;;;;;;;4.87;3.90;;;;;;;19.76;59.95;100160.44;5550491;32;34206;-91
2023/06/14 18:23:37;;;;;;;4.97;3.75;;;;;;;19.68;58.32;100160.31;5556967;31;33975;-90
2023/06/14 18:26:39;;;;;;;7.25;4.32;;;;;;;19.63;58.37;100158.03;5552864;32;34392;-90
2023/06/14 18:29:42;;;;;;;4.90;3.95;;;;;;;19.65;58.34;100158.75;5556314;32;33580;-90
2023/06/14 18:32:46;;;;;;;6.10;3.72;;;;;;;19.53;58.99;100163.38;5557398;32;34804;-90
2023/06/14 18:35:50;;;;;;;7.37;3.92;;;;;;;19.52;59.02;100163.56;5550101;32;34570;-90
2023/06/14 18:38:53;;;;;;;8.00;4.00;;;;;;;19.44;58.79;100166.06;5551304;32;33680;-91
2023/06/14 18:41:58;;;;;;;4.68;3.70;;;;;;;19.37;59.58;100172.00;5551143;32;34088;-94
2023/06/14 18:45:02;;;;;;;5.22;3.85;;;;;;;19.30;59.20;100167.34;5551561;32;35132;-93
2023/06/14 18:48:05;;;;;;;4.65;4.07;;;;;;;19.25;59.11;100171.28;5550501;32;33663;-91
2023/06/14 18:51:09;;;;;;;8.23;4.00;;;;;;;19.47;57.38;100173.88;5551375;32;33719;-91
2023/06/14 18:54:12;;;;;;;4.50;3.85;;;;;;;19.31;59.97;100171.72;5551090;32;35252;-91
2023/06/14 18:57:15;;;;;;;4.35;3.90;;;;;;;19.13;59.30;100180.47;5550918;32;33885;-90
2023/06/14 19:00:19;;;;;;;5.60;4.28;;;;;;;19.09;60.37;100182.56;5550788;32;34929;-91